sensor_id;sensor_type;location;lat;lon;timestamp;P1;durP1;ratioP1;P2;durP2;ratioP2
1935;SDS011;969;49.892;10.896;2023-06-14T00:00:06;5.57;;;4.43;;
1935;SDS011;969;49.892;10.896;2023-06-14T00:02:32;5.10;;;4.60;;
1935;SDS011;969;49.892;10.896;2023-06-14T00:04:58;4.90;;;4.50;;
1935;SDS011;969;49.892;10.896;2023-06-14T00:07:33;4.83;;;4.40;;
1935;SDS011;969;49.892;10.896;2023-06-14T00:10:03;5.20;;;4.70;;
1935;SDS011;969;49.892;10.896;2023-06-14T00:12:30;4.20;;;3.80;;
1935;SDS011;969;49.892;10.896;2023-06-14T00:14:56;5.50;;;4.37;;
1935;SDS011;969;49.892;10.896;2023-06-14T00:17:22;4.30;;;3.70;;
1935;SDS011;969;49.892;10.896;2023-06-14T00:19:47;5.67;;;4.70;;
1935;SDS011;969;49.892;10.896;2023-06-14T00:22:13;4.33;;;3.90;;
1935;SDS011;969;49.892;10.896;2023-06-14T00:24:39;6.90;;;5.03;;
1935;SDS011;969;49.892;10.896;2023-06-14T00:27:04;4.87;;;4.07;;
1935;SDS011;969;49.892;10.896;2023-06-14T00:29:30;4.70;;;4.17;;
1935;SDS011;969;49.892;10.896;2023-06-14T00:31:56;4.20;;;3.80;;
1935;SDS011;969;49.892;10.896;2023-06-14T00:34:21;6.10;;;5.03;;
1935;SDS011;969;49.892;10.896;2023-06-14T00:36:47;4.47;;;4.07;;
1935;SDS011;969;49.892;10.896;2023-06-14T00:39:13;4.23;;;3.83;;
1935;SDS011;969;49.892;10.896;2023-06-14T00:41:39;4.30;;;3.90;;
1935;SDS011;969;49.892;10.896;2023-06-14T00:44:04;4.50;;;4.10;;
1935;SDS011;969;49.892;10.896;2023-06-14T00:46:30;4.60;;;4.20;;
1935;SDS011;969;49.892;10.896;2023-06-14T00:48:56;3.87;;;3.57;;
1935;SDS011;969;49.892;10.896;2023-06-14T00:51:23;4.27;;;3.87;;
1935;SDS011;969;49.892;10.896;2023-06-14T00:53:50;4.97;;;4.13;;
1935;SDS011;969;49.892;10.896;2023-06-14T00:56:16;4.93;;;4.17;;
1935;SDS011;969;49.892;10.896;2023-06-14T00:58:45;5.27;;;4.77;;
1935;SDS011;969;49.892;10.896;2023-06-14T01:01:11;4.10;;;3.70;;
1935;SDS011;969;49.892;10.896;2023-06-14T01:03:37;3.70;;;3.37;;
1935;SDS011;969;49.892;10.896;2023-06-14T01:08:56;4.50;;;3.80;;
1935;SDS011;969;49.892;10.896;2023-06-14T01:11:38;4.23;;;3.80;;
1935;SDS011;969;49.892;10.896;2023-06-14T01:14:12;4.60;;;3.60;;
1935;SDS011;969;49.892;10.896;2023-06-14T01:16:39;4.63;;;4.17;;
1935;SDS011;969;49.892;10.896;2023-06-14T01:19:05;4.70;;;4.17;;
1935;SDS011;969;49.892;10.896;2023-06-14T01:21:38;6.00;;;4.50;;
1935;SDS011;969;49.892;10.896;2023-06-14T01:24:07;4.13;;;3.83;;
1935;SDS011;969;49.892;10.896;2023-06-14T01:26:36;3.60;;;3.30;;
1935;SDS011;969;49.892;10.896;2023-06-14T01:29:03;3.20;;;2.90;;
1935;SDS011;969;49.892;10.896;2023-06-14T01:31:29;4.53;;;3.60;;
1935;SDS011;969;49.892;10.896;2023-06-14T01:34:04;4.17;;;3.77;;
1935;SDS011;969;49.892;10.896;2023-06-14T01:36:30;3.80;;;3.37;;
1935;SDS011;969;49.892;10.896;2023-06-14T01:38:56;3.30;;;3.00;;
1935;SDS011;969;49.892;10.896;2023-06-14T01:41:24;4.77;;;4.27;;
1935;SDS011;969;49.892;10.896;2023-06-14T01:43:50;3.80;;;3.50;;
1935;SDS011;969;49.892;10.896;2023-06-14T01:46:17;4.53;;;4.07;;
1935;SDS011;969;49.892;10.896;2023-06-14T01:48:42;5.20;;;4.70;;
1935;SDS011;969;49.892;10.896;2023-06-14T01:51:08;5.67;;;4.57;;
1935;SDS011;969;49.892;10.896;2023-06-14T01:53:34;4.13;;;3.80;;
1935;SDS011;969;49.892;10.896;2023-06-14T01:56:01;5.07;;;4.57;;
1935;SDS011;969;49.892;10.896;2023-06-14T01:58:26;4.97;;;4.50;;
1935;SDS011;969;49.892;10.896;2023-06-14T02:00:52;4.90;;;4.40;;
1935;SDS011;969;49.892;10.896;2023-06-14T02:03:20;5.63;;;5.13;;
1935;SDS011;969;49.892;10.896;2023-06-14T02:05:46;4.77;;;4.17;;
1935;SDS011;969;49.892;10.896;2023-06-14T02:08:12;5.53;;;4.93;;
1935;SDS011;969;49.892;10.896;2023-06-14T02:10:37;5.23;;;4.73;;
1935;SDS011;969;49.892;10.896;2023-06-14T02:13:03;5.37;;;4.87;;
1935;SDS011;969;49.892;10.896;2023-06-14T02:15:29;5.20;;;4.00;;
1935;SDS011;969;49.892;10.896;2023-06-14T02:17:59;4.70;;;4.30;;
1935;SDS011;969;49.892;10.896;2023-06-14T02:20:25;6.00;;;4.77;;
1935;SDS011;969;49.892;10.896;2023-06-14T02:22:51;4.60;;;4.20;;
1935;SDS011;969;49.892;10.896;2023-06-14T02:25:16;5.03;;;4.60;;
1935;SDS011;969;49.892;10.896;2023-06-14T02:27:42;5.50;;;5.00;;
1935;SDS011;969;49.892;10.896;2023-06-14T02:30:08;6.00;;;5.23;;
1935;SDS011;969;49.892;10.896;2023-06-14T02:32:33;5.07;;;4.57;;
1935;SDS011;969;49.892;10.896;2023-06-14T02:35:00;5.23;;;4.73;;
1935;SDS011;969;49.892;10.896;2023-06-14T02:37:26;5.43;;;4.97;;
1935;SDS011;969;49.892;10.896;2023-06-14T02:39:52;5.57;;;5.00;;
1935;SDS011;969;49.892;10.896;2023-06-14T02:42:17;4.97;;;4.57;;
1935;SDS011;969;49.892;10.896;2023-06-14T02:44:43;5.00;;;4.53;;
1935;SDS011;969;49.892;10.896;2023-06-14T02:47:10;5.63;;;4.97;;
1935;SDS011;969;49.892;10.896;2023-06-14T02:49:35;5.70;;;5.20;;
1935;SDS011;969;49.892;10.896;2023-06-14T02:52:01;5.20;;;4.63;;
1935;SDS011;969;49.892;10.896;2023-06-14T02:54:27;5.93;;;4.77;;
1935;SDS011;969;49.892;10.896;2023-06-14T02:56:53;5.90;;;5.40;;
1935;SDS011;969;49.892;10.896;2023-06-14T02:59:18;5.70;;;5.20;;
1935;SDS011;969;49.892;10.896;2023-06-14T03:01:46;5.13;;;4.63;;
1935;SDS011;969;49.892;10.896;2023-06-14T03:04:12;5.10;;;4.70;;
1935;SDS011;969;49.892;10.896;2023-06-14T03:06:37;5.63;;;5.13;;
1935;SDS011;969;49.892;10.896;2023-06-14T03:09:04;5.40;;;4.90;;
1935;SDS011;969;49.892;10.896;2023-06-14T03:11:30;5.17;;;4.77;;
1935;SDS011;969;49.892;10.896;2023-06-14T03:13:57;5.77;;;5.27;;
1935;SDS011;969;49.892;10.896;2023-06-14T03:16:23;5.37;;;4.90;;
1935;SDS011;969;49.892;10.896;2023-06-14T03:18:52;5.27;;;4.80;;
1935;SDS011;969;49.892;10.896;2023-06-14T03:21:18;5.27;;;4.87;;
1935;SDS011;969;49.892;10.896;2023-06-14T03:23:45;5.53;;;5.03;;
1935;SDS011;969;49.892;10.896;2023-06-14T03:26:11;5.23;;;4.83;;
1935;SDS011;969;49.892;10.896;2023-06-14T03:28:48;5.40;;;5.00;;
1935;SDS011;969;49.892;10.896;2023-06-14T03:31:14;5.37;;;4.87;;
1935;SDS011;969;49.892;10.896;2023-06-14T03:33:41;5.10;;;4.70;;
1935;SDS011;969;49.892;10.896;2023-06-14T03:36:06;6.00;;;5.40;;
1935;SDS011;969;49.892;10.896;2023-06-14T03:38:32;5.07;;;4.57;;
1935;SDS011;969;49.892;10.896;2023-06-14T03:40:58;5.43;;;4.93;;
1935;SDS011;969;49.892;10.896;2023-06-14T03:43:24;5.30;;;4.90;;
1935;SDS011;969;49.892;10.896;2023-06-14T03:45:50;6.10;;;5.00;;
1935;SDS011;969;49.892;10.896;2023-06-14T03:48:15;5.50;;;5.00;;
1935;SDS011;969;49.892;10.896;2023-06-14T03:50:41;5.20;;;4.80;;
1935;SDS011;969;49.892;10.896;2023-06-14T03:53:08;5.73;;;5.23;;
1935;SDS011;969;49.892;10.896;2023-06-14T03:55:33;5.30;;;4.53;;
1935;SDS011;969;49.892;10.896;2023-06-14T03:57:59;5.17;;;4.77;;
1935;SDS011;969;49.892;10.896;2023-06-14T04:00:25;4.93;;;4.63;;
1935;SDS011;969;49.892;10.896;2023-06-14T04:02:51;5.10;;;4.60;;
1935;SDS011;969;49.892;10.896;2023-06-14T04:05:17;5.30;;;4.73;;
1935;SDS011;969;49.892;10.896;2023-06-14T04:07:44;6.50;;;5.47;;
1935;SDS011;969;49.892;10.896;2023-06-14T04:10:10;5.00;;;4.60;;
1935;SDS011;969;49.892;10.896;2023-06-14T04:12:37;6.27;;;5.70;;
1935;SDS011;969;49.892;10.896;2023-06-14T04:15:03;4.70;;;4.30;;
1935;SDS011;969;49.892;10.896;2023-06-14T04:17:31;4.50;;;4.10;;
1935;SDS011;969;49.892;10.896;2023-06-14T04:20:00;5.07;;;4.57;;
1935;SDS011;969;49.892;10.896;2023-06-14T04:22:28;5.63;;;5.13;;
1935;SDS011;969;49.892;10.896;2023-06-14T04:24:57;5.57;;;5.07;;
1935;SDS011;969;49.892;10.896;2023-06-14T04:27:23;5.00;;;4.60;;
1935;SDS011;969;49.892;10.896;2023-06-14T04:29:51;4.70;;;4.30;;
1935;SDS011;969;49.892;10.896;2023-06-14T04:32:24;4.60;;;4.20;;
1935;SDS011;969;49.892;10.896;2023-06-14T04:34:54;5.83;;;4.93;;
1935;SDS011;969;49.892;10.896;2023-06-14T04:37:20;5.07;;;4.57;;
1935;SDS011;969;49.892;10.896;2023-06-14T04:39:47;5.43;;;4.93;;
1935;SDS011;969;49.892;10.896;2023-06-14T04:42:14;6.23;;;5.00;;
1935;SDS011;969;49.892;10.896;2023-06-14T04:44:40;5.27;;;4.83;;
1935;SDS011;969;49.892;10.896;2023-06-14T04:47:10;6.53;;;5.37;;
1935;SDS011;969;49.892;10.896;2023-06-14T04:49:37;4.80;;;4.30;;
1935;SDS011;969;49.892;10.896;2023-06-14T04:52:03;6.90;;;5.30;;
1935;SDS011;969;49.892;10.896;2023-06-14T04:54:29;5.10;;;4.70;;
1935;SDS011;969;49.892;10.896;2023-06-14T04:56:56;5.67;;;5.13;;
1935;SDS011;969;49.892;10.896;2023-06-14T04:59:22;5.67;;;5.17;;
1935;SDS011;969;49.892;10.896;2023-06-14T05:01:51;6.23;;;5.33;;
1935;SDS011;969;49.892;10.896;2023-06-14T05:04:18;5.17;;;4.67;;
1935;SDS011;969;49.892;10.896;2023-06-14T05:06:44;5.80;;;5.23;;
1935;SDS011;969;49.892;10.896;2023-06-14T05:09:11;5.50;;;4.50;;
1935;SDS011;969;49.892;10.896;2023-06-14T05:11:38;6.30;;;5.40;;
1935;SDS011;969;49.892;10.896;2023-06-14T05:14:04;5.17;;;4.73;;
1935;SDS011;969;49.892;10.896;2023-06-14T05:16:31;5.03;;;4.50;;
1935;SDS011;969;49.892;10.896;2023-06-14T05:18:57;5.00;;;4.57;;
1935;SDS011;969;49.892;10.896;2023-06-14T05:21:23;4.37;;;4.03;;
1935;SDS011;969;49.892;10.896;2023-06-14T05:23:48;5.50;;;4.60;;
1935;SDS011;969;49.892;10.896;2023-06-14T05:26:15;5.47;;;4.97;;
1935;SDS011;969;49.892;10.896;2023-06-14T05:28:41;5.80;;;5.30;;
1935;SDS011;969;49.892;10.896;2023-06-14T05:31:06;4.90;;;4.50;;
1935;SDS011;969;49.892;10.896;2023-06-14T05:33:32;5.37;;;4.80;;
1935;SDS011;969;49.892;10.896;2023-06-14T05:35:58;6.87;;;4.90;;
1935;SDS011;969;49.892;10.896;2023-06-14T05:38:23;5.13;;;4.73;;
1935;SDS011;969;49.892;10.896;2023-06-14T05:40:49;5.23;;;4.73;;
1935;SDS011;969;49.892;10.896;2023-06-14T05:43:14;5.20;;;4.80;;
1935;SDS011;969;49.892;10.896;2023-06-14T05:45:40;6.17;;;4.63;;
1935;SDS011;969;49.892;10.896;2023-06-14T05:48:05;4.73;;;4.33;;
1935;SDS011;969;49.892;10.896;2023-06-14T05:50:31;4.97;;;4.57;;
1935;SDS011;969;49.892;10.896;2023-06-14T05:52:57;4.20;;;3.90;;
1935;SDS011;969;49.892;10.896;2023-06-14T05:55:22;4.80;;;4.40;;
1935;SDS011;969;49.892;10.896;2023-06-14T05:57:48;4.87;;;4.47;;
1935;SDS011;969;49.892;10.896;2023-06-14T06:00:14;5.33;;;4.90;;
1935;SDS011;969;49.892;10.896;2023-06-14T06:02:41;7.77;;;4.77;;
1935;SDS011;969;49.892;10.896;2023-06-14T06:05:11;4.73;;;4.33;;
1935;SDS011;969;49.892;10.896;2023-06-14T06:07:38;5.40;;;4.90;;
1935;SDS011;969;49.892;10.896;2023-06-14T06:10:07;5.70;;;5.20;;
1935;SDS011;969;49.892;10.896;2023-06-14T06:12:33;5.40;;;4.57;;
1935;SDS011;969;49.892;10.896;2023-06-14T06:14:59;5.07;;;4.67;;
1935;SDS011;969;49.892;10.896;2023-06-14T06:17:25;4.73;;;4.40;;
1935;SDS011;969;49.892;10.896;2023-06-14T06:19:51;5.27;;;4.87;;
1935;SDS011;969;49.892;10.896;2023-06-14T06:22:17;4.90;;;4.50;;
1935;SDS011;969;49.892;10.896;2023-06-14T06:24:42;6.10;;;4.80;;
1935;SDS011;969;49.892;10.896;2023-06-14T06:27:08;5.87;;;5.20;;
1935;SDS011;969;49.892;10.896;2023-06-14T06:29:34;4.83;;;4.33;;
1935;SDS011;969;49.892;10.896;2023-06-14T06:32:00;5.37;;;4.87;;
1935;SDS011;969;49.892;10.896;2023-06-14T06:34:26;5.13;;;4.63;;
1935;SDS011;969;49.892;10.896;2023-06-14T06:36:52;5.30;;;4.80;;
1935;SDS011;969;49.892;10.896;2023-06-14T06:39:17;5.17;;;4.73;;
1935;SDS011;969;49.892;10.896;2023-06-14T06:41:44;5.90;;;4.83;;
1935;SDS011;969;49.892;10.896;2023-06-14T06:44:09;5.60;;;5.07;;
1935;SDS011;969;49.892;10.896;2023-06-14T06:46:35;4.93;;;4.53;;
1935;SDS011;969;49.892;10.896;2023-06-14T06:49:05;4.93;;;4.17;;
1935;SDS011;969;49.892;10.896;2023-06-14T06:51:31;5.07;;;4.67;;
1935;SDS011;969;49.892;10.896;2023-06-14T06:53:56;4.57;;;4.10;;
1935;SDS011;969;49.892;10.896;2023-06-14T06:56:22;4.73;;;4.33;;
1935;SDS011;969;49.892;10.896;2023-06-14T06:58:51;4.70;;;4.30;;
1935;SDS011;969;49.892;10.896;2023-06-14T07:01:17;6.00;;;4.63;;
1935;SDS011;969;49.892;10.896;2023-06-14T07:03:44;5.00;;;4.50;;
1935;SDS011;969;49.892;10.896;2023-06-14T07:06:10;5.07;;;4.67;;
1935;SDS011;969;49.892;10.896;2023-06-14T07:08:36;4.70;;;4.30;;
1935;SDS011;969;49.892;10.896;2023-06-14T07:11:04;5.60;;;5.03;;
1935;SDS011;969;49.892;10.896;2023-06-14T07:13:30;5.27;;;4.77;;
1935;SDS011;969;49.892;10.896;2023-06-14T07:15:59;4.50;;;4.10;;
1935;SDS011;969;49.892;10.896;2023-06-14T07:18:25;5.03;;;4.60;;
1935;SDS011;969;49.892;10.896;2023-06-14T07:20:51;5.07;;;4.50;;
1935;SDS011;969;49.892;10.896;2023-06-14T07:23:19;5.27;;;4.43;;
1935;SDS011;969;49.892;10.896;2023-06-14T07:25:47;5.27;;;4.73;;
1935;SDS011;969;49.892;10.896;2023-06-14T07:28:13;4.70;;;4.30;;
1935;SDS011;969;49.892;10.896;2023-06-14T07:30:39;4.87;;;4.40;;
1935;SDS011;969;49.892;10.896;2023-06-14T07:33:04;4.83;;;4.33;;
1935;SDS011;969;49.892;10.896;2023-06-14T07:35:30;5.70;;;4.47;;
1935;SDS011;969;49.892;10.896;2023-06-14T07:37:56;5.87;;;4.67;;
1935;SDS011;969;49.892;10.896;2023-06-14T07:40:22;4.90;;;4.47;;
1935;SDS011;969;49.892;10.896;2023-06-14T07:42:47;5.73;;;4.73;;
1935;SDS011;969;49.892;10.896;2023-06-14T07:45:15;5.73;;;5.17;;
1935;SDS011;969;49.892;10.896;2023-06-14T07:47:41;5.70;;;5.00;;
1935;SDS011;969;49.892;10.896;2023-06-14T07:50:06;4.50;;;4.10;;
1935;SDS011;969;49.892;10.896;2023-06-14T07:52:32;4.37;;;3.97;;
1935;SDS011;969;49.892;10.896;2023-06-14T07:54:58;5.17;;;4.70;;
1935;SDS011;969;49.892;10.896;2023-06-14T07:57:23;5.70;;;4.43;;
1935;SDS011;969;49.892;10.896;2023-06-14T07:59:49;6.37;;;5.17;;
1935;SDS011;969;49.892;10.896;2023-06-14T08:02:15;4.77;;;4.37;;
1935;SDS011;969;49.892;10.896;2023-06-14T08:04:41;4.63;;;4.23;;
1935;SDS011;969;49.892;10.896;2023-06-14T08:07:07;5.33;;;4.80;;
1935;SDS011;969;49.892;10.896;2023-06-14T08:09:33;5.97;;;4.83;;
1935;SDS011;969;49.892;10.896;2023-06-14T08:11:58;4.63;;;4.23;;
1935;SDS011;969;49.892;10.896;2023-06-14T08:14:25;7.37;;;4.53;;
1935;SDS011;969;49.892;10.896;2023-06-14T08:16:50;4.90;;;4.40;;
1935;SDS011;969;49.892;10.896;2023-06-14T08:19:16;5.10;;;4.70;;
1935;SDS011;969;49.892;10.896;2023-06-14T08:21:42;5.23;;;4.73;;
1935;SDS011;969;49.892;10.896;2023-06-14T08:24:08;7.00;;;5.30;;
1935;SDS011;969;49.892;10.896;2023-06-14T08:26:37;5.30;;;4.80;;
1935;SDS011;969;49.892;10.896;2023-06-14T08:29:04;5.17;;;4.50;;
1935;SDS011;969;49.892;10.896;2023-06-14T08:31:30;4.37;;;3.97;;
1935;SDS011;969;49.892;10.896;2023-06-14T08:33:56;5.73;;;5.07;;
1935;SDS011;969;49.892;10.896;2023-06-14T08:36:22;6.13;;;4.53;;
1935;SDS011;969;49.892;10.896;2023-06-14T08:38:48;6.90;;;5.00;;
1935;SDS011;969;49.892;10.896;2023-06-14T08:41:14;5.17;;;4.63;;
1935;SDS011;969;49.892;10.896;2023-06-14T08:43:45;5.13;;;4.40;;
1935;SDS011;969;49.892;10.896;2023-06-14T08:46:11;6.20;;;5.00;;
1935;SDS011;969;49.892;10.896;2023-06-14T08:48:41;5.30;;;4.57;;
1935;SDS011;969;49.892;10.896;2023-06-14T08:51:08;5.00;;;4.50;;
1935;SDS011;969;49.892;10.896;2023-06-14T08:53:36;4.73;;;4.23;;
1935;SDS011;969;49.892;10.896;2023-06-14T08:56:07;5.27;;;4.73;;
1935;SDS011;969;49.892;10.896;2023-06-14T08:58:40;4.83;;;4.43;;
1935;SDS011;969;49.892;10.896;2023-06-14T09:01:10;4.70;;;4.23;;
1935;SDS011;969;49.892;10.896;2023-06-14T09:03:41;4.97;;;4.33;;
1935;SDS011;969;49.892;10.896;2023-06-14T09:06:07;5.00;;;4.50;;
1935;SDS011;969;49.892;10.896;2023-06-14T09:08:38;5.10;;;4.07;;
1935;SDS011;969;49.892;10.896;2023-06-14T09:11:08;5.90;;;5.17;;
1935;SDS011;969;49.892;10.896;2023-06-14T09:13:35;4.27;;;3.87;;
1935;SDS011;969;49.892;10.896;2023-06-14T09:16:01;5.50;;;4.57;;
1935;SDS011;969;49.892;10.896;2023-06-14T09:18:46;5.33;;;4.50;;
1935;SDS011;969;49.892;10.896;2023-06-14T09:21:13;5.40;;;4.40;;
1935;SDS011;969;49.892;10.896;2023-06-14T09:23:40;5.40;;;4.60;;
1935;SDS011;969;49.892;10.896;2023-06-14T09:28:47;5.33;;;4.30;;
1935;SDS011;969;49.892;10.896;2023-06-14T09:31:15;4.37;;;3.97;;
1935;SDS011;969;49.892;10.896;2023-06-14T09:33:44;5.63;;;4.80;;
1935;SDS011;969;49.892;10.896;2023-06-14T09:36:18;4.37;;;3.97;;
1935;SDS011;969;49.892;10.896;2023-06-14T09:39:02;5.00;;;4.60;;
1935;SDS011;969;49.892;10.896;2023-06-14T09:41:33;4.67;;;4.07;;
1935;SDS011;969;49.892;10.896;2023-06-14T09:43:59;4.37;;;3.97;;
1935;SDS011;969;49.892;10.896;2023-06-14T09:46:28;4.40;;;4.00;;
1935;SDS011;969;49.892;10.896;2023-06-14T09:48:59;7.30;;;4.40;;
1935;SDS011;969;49.892;10.896;2023-06-14T09:51:25;4.37;;;3.97;;
1935;SDS011;969;49.892;10.896;2023-06-14T09:53:52;4.20;;;3.47;;
1935;SDS011;969;49.892;10.896;2023-06-14T09:56:26;3.90;;;3.50;;
1935;SDS011;969;49.892;10.896;2023-06-14T09:58:54;4.40;;;4.00;;
1935;SDS011;969;49.892;10.896;2023-06-14T10:01:22;4.10;;;3.70;;
1935;SDS011;969;49.892;10.896;2023-06-14T10:03:50;5.40;;;3.80;;
1935;SDS011;969;49.892;10.896;2023-06-14T10:06:19;4.97;;;4.30;;
1935;SDS011;969;49.892;10.896;2023-06-14T10:08:49;4.60;;;3.57;;
1935;SDS011;969;49.892;10.896;2023-06-14T10:11:17;4.43;;;3.73;;
1935;SDS011;969;49.892;10.896;2023-06-14T10:13:42;4.60;;;4.07;;
1935;SDS011;969;49.892;10.896;2023-06-14T10:16:15;4.63;;;3.50;;
1935;SDS011;969;49.892;10.896;2023-06-14T10:21:18;4.37;;;3.97;;
1935;SDS011;969;49.892;10.896;2023-06-14T10:24:03;6.90;;;4.03;;
1935;SDS011;969;49.892;10.896;2023-06-14T10:26:32;4.07;;;3.60;;
1935;SDS011;969;49.892;10.896;2023-06-14T10:28:58;4.37;;;3.97;;
1935;SDS011;969;49.892;10.896;2023-06-14T10:37:03;4.03;;;3.63;;
1935;SDS011;969;49.892;10.896;2023-06-14T10:39:30;4.23;;;3.83;;
1935;SDS011;969;49.892;10.896;2023-06-14T10:41:57;3.50;;;3.20;;
1935;SDS011;969;49.892;10.896;2023-06-14T10:46:49;4.00;;;3.37;;
1935;SDS011;969;49.892;10.896;2023-06-14T10:49:35;5.53;;;3.60;;
1935;SDS011;969;49.892;10.896;2023-06-14T10:52:15;3.60;;;3.30;;
1935;SDS011;969;49.892;10.896;2023-06-14T10:55:00;4.70;;;4.13;;
1935;SDS011;969;49.892;10.896;2023-06-14T10:57:26;4.17;;;3.77;;
1935;SDS011;969;49.892;10.896;2023-06-14T10:59:53;3.47;;;3.20;;
1935;SDS011;969;49.892;10.896;2023-06-14T11:02:27;3.63;;;3.33;;
1935;SDS011;969;49.892;10.896;2023-06-14T11:05:26;4.53;;;3.60;;
1935;SDS011;969;49.892;10.896;2023-06-14T11:10:37;3.50;;;3.20;;
1935;SDS011;969;49.892;10.896;2023-06-14T11:13:04;3.50;;;3.20;;
1935;SDS011;969;49.892;10.896;2023-06-14T11:15:31;3.47;;;3.17;;
1935;SDS011;969;49.892;10.896;2023-06-14T11:17:58;4.20;;;3.17;;
1935;SDS011;969;49.892;10.896;2023-06-14T11:20:26;4.07;;;3.67;;
1935;SDS011;969;49.892;10.896;2023-06-14T11:22:53;4.33;;;3.83;;
1935;SDS011;969;49.892;10.896;2023-06-14T11:25:19;3.90;;;3.53;;
1935;SDS011;969;49.892;10.896;2023-06-14T11:27:45;5.70;;;3.37;;
1935;SDS011;969;49.892;10.896;2023-06-14T11:30:13;3.63;;;3.33;;
1935;SDS011;969;49.892;10.896;2023-06-14T11:32:39;3.50;;;3.20;;
1935;SDS011;969;49.892;10.896;2023-06-14T11:35:05;3.90;;;3.60;;
1935;SDS011;969;49.892;10.896;2023-06-14T11:37:33;3.83;;;3.30;;
1935;SDS011;969;49.892;10.896;2023-06-14T11:39:59;4.30;;;3.73;;
1935;SDS011;969;49.892;10.896;2023-06-14T11:42:28;7.00;;;3.40;;
1935;SDS011;969;49.892;10.896;2023-06-14T11:44:55;3.33;;;3.03;;
1935;SDS011;969;49.892;10.896;2023-06-14T11:47:20;3.90;;;3.50;;
1935;SDS011;969;49.892;10.896;2023-06-14T11:49:47;3.50;;;3.20;;
1935;SDS011;969;49.892;10.896;2023-06-14T11:52:12;4.00;;;3.60;;
1935;SDS011;969;49.892;10.896;2023-06-14T11:54:39;5.20;;;4.43;;
1935;SDS011;969;49.892;10.896;2023-06-14T11:57:09;4.57;;;4.17;;
1935;SDS011;969;49.892;10.896;2023-06-14T11:59:38;9.23;;;4.70;;
1935;SDS011;969;49.892;10.896;2023-06-14T12:02:05;7.47;;;5.23;;
1935;SDS011;969;49.892;10.896;2023-06-14T12:04:31;8.90;;;5.17;;
1935;SDS011;969;49.892;10.896;2023-06-14T12:06:57;9.27;;;4.83;;
1935;SDS011;969;49.892;10.896;2023-06-14T12:09:39;7.37;;;5.40;;
1935;SDS011;969;49.892;10.896;2023-06-14T12:12:34;8.10;;;4.97;;
1935;SDS011;969;49.892;10.896;2023-06-14T12:15:02;12.80;;;5.70;;
1935;SDS011;969;49.892;10.896;2023-06-14T12:17:31;7.03;;;5.23;;
1935;SDS011;969;49.892;10.896;2023-06-14T12:20:04;9.67;;;5.90;;
1935;SDS011;969;49.892;10.896;2023-06-14T12:22:36;12.70;;;6.07;;
1935;SDS011;969;49.892;10.896;2023-06-14T12:25:02;9.00;;;6.30;;
1935;SDS011;969;49.892;10.896;2023-06-14T12:27:29;7.60;;;5.63;;
1935;SDS011;969;49.892;10.896;2023-06-14T12:30:01;8.67;;;5.27;;
1935;SDS011;969;49.892;10.896;2023-06-14T12:32:28;8.97;;;6.07;;
1935;SDS011;969;49.892;10.896;2023-06-14T12:34:54;9.30;;;5.30;;
1935;SDS011;969;49.892;10.896;2023-06-14T12:37:20;7.63;;;5.67;;
1935;SDS011;969;49.892;10.896;2023-06-14T12:39:45;7.23;;;5.67;;
1935;SDS011;969;49.892;10.896;2023-06-14T12:42:11;7.57;;;5.73;;
1935;SDS011;969;49.892;10.896;2023-06-14T12:44:39;7.17;;;5.23;;
1935;SDS011;969;49.892;10.896;2023-06-14T12:47:06;7.77;;;5.27;;
1935;SDS011;969;49.892;10.896;2023-06-14T12:49:32;8.70;;;5.30;;
1935;SDS011;969;49.892;10.896;2023-06-14T12:51:58;6.37;;;5.50;;
1935;SDS011;969;49.892;10.896;2023-06-14T12:54:24;7.77;;;4.83;;
1935;SDS011;969;49.892;10.896;2023-06-14T12:56:51;7.67;;;5.10;;
1935;SDS011;969;49.892;10.896;2023-06-14T12:59:16;6.60;;;5.20;;
1935;SDS011;969;49.892;10.896;2023-06-14T13:01:43;8.00;;;5.87;;
1935;SDS011;969;49.892;10.896;2023-06-14T13:04:09;6.57;;;4.60;;
1935;SDS011;969;49.892;10.896;2023-06-14T13:06:35;5.10;;;4.40;;
1935;SDS011;969;49.892;10.896;2023-06-14T13:09:01;8.83;;;4.90;;
1935;SDS011;969;49.892;10.896;2023-06-14T13:11:28;7.00;;;4.63;;
1935;SDS011;969;49.892;10.896;2023-06-14T13:13:54;6.90;;;4.83;;
1935;SDS011;969;49.892;10.896;2023-06-14T13:16:20;6.50;;;4.97;;
1935;SDS011;969;49.892;10.896;2023-06-14T13:18:46;8.73;;;5.73;;
1935;SDS011;969;49.892;10.896;2023-06-14T13:21:12;6.77;;;5.87;;
1935;SDS011;969;49.892;10.896;2023-06-14T13:23:38;9.70;;;5.30;;
1935;SDS011;969;49.892;10.896;2023-06-14T13:26:03;7.73;;;5.03;;
1935;SDS011;969;49.892;10.896;2023-06-14T13:28:29;8.97;;;5.80;;
1935;SDS011;969;49.892;10.896;2023-06-14T13:30:56;6.17;;;5.07;;
1935;SDS011;969;49.892;10.896;2023-06-14T13:33:22;5.97;;;4.80;;
1935;SDS011;969;49.892;10.896;2023-06-14T13:35:49;6.77;;;4.17;;
1935;SDS011;969;49.892;10.896;2023-06-14T13:38:14;7.60;;;5.17;;
1935;SDS011;969;49.892;10.896;2023-06-14T13:40:40;6.33;;;4.57;;
1935;SDS011;969;49.892;10.896;2023-06-14T13:43:06;8.90;;;5.13;;
1935;SDS011;969;49.892;10.896;2023-06-14T13:45:31;8.43;;;5.10;;
1935;SDS011;969;49.892;10.896;2023-06-14T13:47:57;7.30;;;4.90;;
1935;SDS011;969;49.892;10.896;2023-06-14T13:50:23;7.50;;;5.13;;
1935;SDS011;969;49.892;10.896;2023-06-14T13:52:48;7.37;;;5.00;;
1935;SDS011;969;49.892;10.896;2023-06-14T13:55:14;6.60;;;4.80;;
1935;SDS011;969;49.892;10.896;2023-06-14T13:57:39;5.93;;;4.20;;
1935;SDS011;969;49.892;10.896;2023-06-14T14:00:05;7.80;;;4.97;;
1935;SDS011;969;49.892;10.896;2023-06-14T14:02:31;8.03;;;5.10;;
1935;SDS011;969;49.892;10.896;2023-06-14T14:04:57;6.50;;;4.10;;
1935;SDS011;969;49.892;10.896;2023-06-14T14:07:22;7.10;;;4.97;;
1935;SDS011;969;49.892;10.896;2023-06-14T14:09:48;9.60;;;5.10;;
1935;SDS011;969;49.892;10.896;2023-06-14T14:12:14;12.63;;;4.77;;
1935;SDS011;969;49.892;10.896;2023-06-14T14:14:40;6.43;;;4.77;;
1935;SDS011;969;49.892;10.896;2023-06-14T14:17:05;7.43;;;4.30;;
1935;SDS011;969;49.892;10.896;2023-06-14T14:19:31;5.60;;;4.13;;
1935;SDS011;969;49.892;10.896;2023-06-14T14:21:57;6.53;;;4.77;;
1935;SDS011;969;49.892;10.896;2023-06-14T14:24:23;7.57;;;4.20;;
1935;SDS011;969;49.892;10.896;2023-06-14T14:26:49;4.90;;;4.40;;
1935;SDS011;969;49.892;10.896;2023-06-14T14:29:15;6.73;;;4.50;;
1935;SDS011;969;49.892;10.896;2023-06-14T14:31:41;8.43;;;4.60;;
1935;SDS011;969;49.892;10.896;2023-06-14T14:34:07;5.67;;;4.20;;
1935;SDS011;969;49.892;10.896;2023-06-14T14:36:33;5.40;;;4.80;;
1935;SDS011;969;49.892;10.896;2023-06-14T14:39:01;5.87;;;4.17;;
1935;SDS011;969;49.892;10.896;2023-06-14T14:41:27;6.87;;;4.67;;
1935;SDS011;969;49.892;10.896;2023-06-14T14:43:52;6.87;;;4.27;;
1935;SDS011;969;49.892;10.896;2023-06-14T14:46:18;4.97;;;4.40;;
1935;SDS011;969;49.892;10.896;2023-06-14T14:48:44;7.80;;;4.70;;
1935;SDS011;969;49.892;10.896;2023-06-14T14:51:09;5.10;;;4.30;;
1935;SDS011;969;49.892;10.896;2023-06-14T14:53:35;5.93;;;4.30;;
1935;SDS011;969;49.892;10.896;2023-06-14T14:56:00;5.67;;;3.57;;
1935;SDS011;969;49.892;10.896;2023-06-14T14:58:26;5.87;;;3.67;;
1935;SDS011;969;49.892;10.896;2023-06-14T15:00:52;7.30;;;4.30;;
1935;SDS011;969;49.892;10.896;2023-06-14T15:03:17;4.13;;;3.67;;
1935;SDS011;969;49.892;10.896;2023-06-14T15:05:43;5.33;;;3.83;;
1935;SDS011;969;49.892;10.896;2023-06-14T15:08:08;5.03;;;4.20;;
1935;SDS011;969;49.892;10.896;2023-06-14T15:10:37;5.57;;;4.40;;
1935;SDS011;969;49.892;10.896;2023-06-14T15:13:06;4.80;;;3.53;;
1935;SDS011;969;49.892;10.896;2023-06-14T15:15:33;5.30;;;3.90;;
1935;SDS011;969;49.892;10.896;2023-06-14T15:17:59;4.77;;;3.80;;
1935;SDS011;969;49.892;10.896;2023-06-14T15:20:25;5.90;;;4.43;;
1935;SDS011;969;49.892;10.896;2023-06-14T15:22:51;4.00;;;3.60;;
1935;SDS011;969;49.892;10.896;2023-06-14T15:25:17;5.10;;;4.17;;
1935;SDS011;969;49.892;10.896;2023-06-14T15:27:44;6.37;;;3.57;;
1935;SDS011;969;49.892;10.896;2023-06-14T15:30:09;5.40;;;3.87;;
1935;SDS011;969;49.892;10.896;2023-06-14T15:32:35;4.80;;;3.60;;